Time;durP1;ratioP1;P1;durP2;ratioP2;P2;SDS_P1;SDS_P2;PMS_P1;PMS_P2;Temp;Humidity;BMP_temperature;BMP_pressure;BME280_temperature;BME280_humidity;BME280_pressure;Samples;Min_cycle;Max_cycle;Signal;HPM_P1;HPM_P2
2023/06/07 00:00:47;;;;;;;;;;;;;;;12.05;100.00;102139.16;10457425;28;20299;-70
2023/06/07 00:05:48;;;;;;;;;;;;;;;12.04;100.00;102145.63;10458558;28;19955;-69
2023/06/07 00:10:48;;;;;;;;;;;;;;;12.04;100.00;102145.63;10458252;28;19998;-70
2023/06/07 00:15:48;;;;;;;;;;;;;;;12.04;100.00;102145.63;10439223;28;19966;-70
2023/06/07 00:20:49;;;;;;;;;;;;;;;12.00;100.00;102142.44;10457485;28;19928;-69
2023/06/07 00:25:49;;;;;;;;;;;;;;;12.02;100.00;102139.50;10458814;28;19940;-70
2023/06/07 00:30:50;;;;;;;;;;;;;;;11.97;100.00;102134.63;10456734;28;19927;-71
2023/06/07 00:35:50;;;;;;;;;;;;;;;11.95;100.00;102133.09;10457198;28;20015;-70
2023/06/07 00:40:51;;;;;;;;;;;;;;;11.94;100.00;102134.13;10456583;28;19931;-69
2023/06/07 00:51:29;;;;;;;;;;;;;;;11.82;100.00;102142.63;10455146;28;19928;-71
2023/06/07 00:56:30;;;;;;;;;;;;;;;11.80;100.00;102133.78;10455292;28;19917;-70
2023/06/07 01:01:30;;;;;;;;;;;;;;;11.78;100.00;102146.72;10454688;28;20415;-70
2023/06/07 01:06:30;;;;;;;;;;;;;;;11.76;100.00;102145.19;10455132;28;19954;-70
2023/06/07 01:11:30;;;;;;;;;;;;;;;11.72;100.00;102143.84;10420924;28;20004;-70
2023/06/07 01:16:31;;;;;;;;;;;;;;;11.67;100.00;102138.09;10455702;28;19925;-70
2023/06/07 01:21:32;;;;;;;;;;;;;;;11.67;100.00;102138.94;10421606;28;19989;-71
2023/06/07 01:26:32;;;;;;;;;;;;;;;11.69;100.00;102141.50;10456551;28;19924;-71
2023/06/07 01:31:35;;;;;;;;;;;;;;;11.67;100.00;102138.94;10455745;28;19929;-70
2023/06/07 01:36:37;;;;;;;;;;;;;;;11.64;100.00;102133.84;10456460;28;19928;-78
2023/06/07 01:41:37;;;;;;;;;;;;;;;11.62;100.00;102141.34;10438475;28;19917;-79
2023/06/07 01:46:38;;;;;;;;;;;;;;;11.61;100.00;102140.50;10422007;28;20382;-78
2023/06/07 01:51:38;;;;;;;;;;;;;;;11.57;100.00;102124.72;10422455;28;19920;-78
2023/06/07 01:56:53;;;;;;;;;;;;;;;11.52;100.00;102124.38;10455686;28;19921;-79
2023/06/07 02:02:25;;;;;;;;;;;;;;;11.50;100.00;102124.59;10439173;28;19916;-79
2023/06/07 02:07:27;;;;;;;;;;;;;;;11.41;100.00;102134.59;10447093;28;20014;-79
2023/06/07 02:12:27;;;;;;;;;;;;;;;11.38;100.00;102129.50;10453946;28;19917;-78
2023/06/07 02:17:28;;;;;;;;;;;;;;;11.33;100.00;102136.50;10438661;28;19920;-77
2023/06/07 02:22:29;;;;;;;;;;;;;;;11.34;100.00;102128.19;10421039;28;20019;-78
2023/06/07 02:27:29;;;;;;;;;;;;;;;11.45;100.00;102118.81;10462429;28;19917;-78
2023/06/07 02:32:33;;;;;;;;;;;;;;;11.53;100.00;102123.41;10428847;28;19927;-78
2023/06/07 02:49:43;;;;;;;;;;;;;;;11.69;100.00;102120.63;10420135;28;19925;-78
2023/06/07 02:54:43;;;;;;;;;;;;;;;11.79;100.00;102121.25;10445317;28;19944;-78
2023/06/07 02:59:44;;;;;;;;;;;;;;;11.81;100.00;102118.38;10427684;28;19993;-78
2023/06/07 03:04:46;;;;;;;;;;;;;;;11.86;100.00;102122.28;10427354;28;19921;-78
2023/06/07 03:09:47;;;;;;;;;;;;;;;11.93;100.00;102105.28;10445976;28;19916;-78
2023/06/07 03:14:48;;;;;;;;;;;;;;;11.98;100.00;102116.47;10427470;28;19917;-78
2023/06/07 03:19:49;;;;;;;;;;;;;;;11.97;100.00;102122.94;10443150;28;19935;-78
2023/06/07 03:24:52;;;;;;;;;;;;;;;12.04;100.00;102113.03;10444703;28;19956;-78
2023/06/07 03:29:52;;;;;;;;;;;;;;;12.06;100.00;102121.84;10444642;28;20019;-78
2023/06/07 03:34:52;;;;;;;;;;;;;;;12.09;100.00;102121.47;10426232;28;20087;-78
2023/06/07 03:39:53;;;;;;;;;;;;;;;12.14;100.00;102121.81;10444443;28;19927;-78
2023/06/07 03:44:53;;;;;;;;;;;;;;;12.20;100.00;102122.97;10426255;28;19967;-78
2023/06/07 03:49:54;;;;;;;;;;;;;;;12.18;100.00;102115.00;10461394;28;19948;-77
2023/06/07 03:54:54;;;;;;;;;;;;;;;12.23;100.00;102122.63;10442438;28;20291;-78
2023/06/07 03:59:57;;;;;;;;;;;;;;;12.26;100.00;102117.69;10442175;28;19921;-78
2023/06/07 04:04:58;;;;;;;;;;;;;;;12.33;100.00;102118.66;10442520;28;19921;-79
2023/06/07 04:09:58;;;;;;;;;;;;;;;12.33;100.00;102118.66;10427644;28;19947;-78
2023/06/07 04:14:59;;;;;;;;;;;;;;;12.37;100.00;102129.16;10444051;28;20035;-78
2023/06/07 04:20:01;;;;;;;;;;;;;;;12.31;100.00;102120.69;10425004;28;19939;-78
2023/06/07 04:25:02;;;;;;;;;;;;;;;12.42;100.00;102132.19;10426238;28;19920;-78
2023/06/07 04:30:02;;;;;;;;;;;;;;;12.38;100.00;102133.53;10424725;28;20011;-77
2023/06/07 04:35:03;;;;;;;;;;;;;;;12.42;100.00;102134.91;10443886;28;20456;-80
2023/06/07 04:40:07;;;;;;;;;;;;;;;12.44;100.00;102130.13;10458644;28;19921;-78
2023/06/07 04:45:08;;;;;;;;;;;;;;;12.52;100.00;102133.63;10477181;28;19932;-79
2023/06/07 04:50:10;;;;;;;;;;;;;;;12.63;100.00;102134.22;10443477;28;19982;-76
2023/06/07 04:55:11;;;;;;;;;;;;;;;12.58;100.00;102140.22;10425407;28;19927;-79
2023/06/07 05:00:14;;;;;;;;;;;;;;;12.62;100.00;102138.00;10442063;28;19923;-79
2023/06/07 05:05:14;;;;;;;;;;;;;;;12.79;100.00;102134.97;10439985;28;19928;-77
2023/06/07 05:10:17;;;;;;;;;;;;;;;12.91;100.00;102135.38;10456294;28;19989;-78
2023/06/07 05:15:17;;;;;;;;;;;;;;;12.97;100.00;102134.66;10456749;28;19948;-77
2023/06/07 05:20:18;;;;;;;;;;;;;;;13.08;100.00;102141.53;10422030;28;20347;-78
2023/06/07 05:25:18;;;;;;;;;;;;;;;13.20;100.00;102139.19;10422720;28;19970;-78
2023/06/07 05:30:19;;;;;;;;;;;;;;;13.32;100.00;102135.03;10438078;28;20395;-79
2023/06/07 05:35:19;;;;;;;;;;;;;;;13.62;100.00;102144.06;10456881;28;19921;-78
2023/06/07 05:40:21;;;;;;;;;;;;;;;13.92;100.00;102144.06;10439149;28;19920;-78
2023/06/07 05:45:24;;;;;;;;;;;;;;;15.02;100.00;102141.09;10421388;28;19956;-78
2023/06/07 05:50:25;;;;;;;;;;;;;;;15.24;100.00;102141.91;10437986;28;19927;-78
2023/06/07 05:55:27;;;;;;;;;;;;;;;14.95;100.00;102148.38;10422362;28;20000;-78
2023/06/07 06:00:28;;;;;;;;;;;;;;;15.01;100.00;102149.50;10454280;28;19916;-79
2023/06/07 06:05:28;;;;;;;;;;;;;;;15.97;100.00;102139.66;10421071;28;19994;-78
2023/06/07 06:10:29;;;;;;;;;;;;;;;16.59;99.36;102134.19;10420673;28;19952;-78
2023/06/07 06:15:29;;;;;;;;;;;;;;;17.48;95.34;102135.69;10436859;28;19921;-79
2023/06/07 06:20:34;;;;;;;;;;;;;;;17.76;96.37;102136.28;10421045;28;19925;-78
2023/06/07 06:25:36;;;;;;;;;;;;;;;16.63;91.54;102143.69;10435651;28;19916;-78
2023/06/07 06:30:38;;;;;;;;;;;;;;;17.17;94.17;102149.00;10436624;28;20002;-78
2023/06/07 06:35:39;;;;;;;;;;;;;;;18.26;91.63;102152.16;10436966;28;19970;-78
2023/06/07 06:40:39;;;;;;;;;;;;;;;19.11;85.47;102152.66;10438696;28;19981;-79
2023/06/07 06:45:40;;;;;;;;;;;;;;;19.02;83.69;102163.09;10419945;28;20413;-79
2023/06/07 06:50:49;;;;;;;;;;;;;;;17.75;84.07;102164.75;10436324;28;19951;-78
2023/06/07 06:55:49;;;;;;;;;;;;;;;17.05;86.55;102172.59;10455139;28;20300;-78
2023/06/07 07:00:50;;;;;;;;;;;;;;;17.98;86.91;102161.53;10420546;28;19916;-79
2023/06/07 07:05:50;;;;;;;;;;;;;;;19.31;78.35;102170.91;10420831;28;20115;-79
2023/06/07 07:10:51;;;;;;;;;;;;;;;20.41;77.94;102159.94;10458821;28;19917;-78
2023/06/07 07:15:52;;;;;;;;;;;;;;;21.04;69.33;102167.72;10452981;28;19995;-78
2023/06/07 07:20:54;;;;;;;;;;;;;;;20.66;67.68;102159.84;10435762;28;20363;-78
2023/06/07 07:26:01;;;;;;;;;;;;;;;20.81;65.10;102157.50;10443404;28;19929;-79
2023/06/07 07:31:05;;;;;;;;;;;;;;;21.21;67.49;102156.00;10443526;28;19923;-79
2023/06/07 07:36:08;;;;;;;;;;;;;;;21.41;63.40;102163.94;10442168;28;19929;-78
2023/06/07 07:41:08;;;;;;;;;;;;;;;22.10;64.66;102162.19;10442389;28;19921;-78
2023/06/07 07:46:08;;;;;;;;;;;;;;;21.87;60.02;102170.53;10425861;28;19969;-79
2023/06/07 07:51:09;;;;;;;;;;;;;;;22.21;60.23;102164.13;10460258;28;19924;-79
2023/06/07 07:56:10;;;;;;;;;;;;;;;22.39;64.55;102176.06;10425246;28;19920;-79
2023/06/07 08:01:11;;;;;;;;;;;;;;;22.27;59.02;102165.03;10442229;28;20344;-79
2023/06/07 08:06:12;;;;;;;;;;;;;;;21.28;58.68;102156.72;10442227;28;19920;-78
2023/06/07 08:11:12;;;;;;;;;;;;;;;20.83;61.41;102162.75;10439095;28;19917;-78
2023/06/07 08:16:13;;;;;;;;;;;;;;;21.50;62.80;102152.31;10441779;28;19969;-78
2023/06/07 08:21:13;;;;;;;;;;;;;;;21.52;64.54;102165.88;10440579;28;20000;-78
2023/06/07 08:26:15;;;;;;;;;;;;;;;21.77;62.00;102160.94;10440203;28;19978;-78
2023/06/07 08:31:17;;;;;;;;;;;;;;;22.53;56.14;102158.13;10440338;28;19921;-78
2023/06/07 08:36:18;;;;;;;;;;;;;;;23.02;57.12;102147.44;10440753;28;19923;-78
2023/06/07 08:41:18;;;;;;;;;;;;;;;23.00;52.33;102151.53;10439404;28;20016;-79
2023/06/07 08:46:19;;;;;;;;;;;;;;;23.40;57.26;102152.19;10422355;28;19999;-78
2023/06/07 08:51:19;;;;;;;;;;;;;;;23.65;54.12;102156.41;10440278;28;20312;-78
2023/06/07 08:56:21;;;;;;;;;;;;;;;24.74;56.46;102150.03;10423387;28;20336;-79
2023/06/07 09:01:23;;;;;;;;;;;;;;;25.16;48.10;102149.31;10439262;28;19980;-78
2023/06/07 09:06:24;;;;;;;;;;;;;;;25.04;54.02;102143.91;10439471;28;19917;-78
2023/06/07 09:11:25;;;;;;;;;;;;;;;25.67;53.09;102154.34;10422963;28;19928;-79
2023/06/07 09:16:25;;;;;;;;;;;;;;;25.27;52.60;102147.44;10421622;28;19923;-78
2023/06/07 09:21:26;;;;;;;;;;;;;;;26.26;53.28;102159.66;10455719;28;20371;-78
2023/06/07 09:26:35;;;;;;;;;;;;;;;26.33;51.92;102143.56;10438662;28;19940;-79
2023/06/07 09:31:36;;;;;;;;;;;;;;;26.04;52.32;102137.66;10422489;28;20336;-78
2023/06/07 09:36:37;;;;;;;;;;;;;;;26.16;46.21;102151.28;10436597;28;19971;-78
2023/06/07 09:41:37;;;;;;;;;;;;;;;25.50;47.99;102141.50;10438365;28;19917;-79
2023/06/07 09:46:38;;;;;;;;;;;;;;;26.17;47.80;102137.13;10443840;28;19923;-79
2023/06/07 09:51:40;;;;;;;;;;;;;;;26.21;48.35;102129.09;10448084;28;19944;-78
2023/06/07 09:56:40;;;;;;;;;;;;;;;26.78;48.24;102132.84;10455767;28;19931;-79
2023/06/07 10:01:51;;;;;;;;;;;;;;;26.17;47.07;102139.91;10455180;28;19925;-78
2023/06/07 10:06:54;;;;;;;;;;;;;;;27.28;49.79;102139.50;10438510;28;19923;-78
2023/06/07 10:11:55;;;;;;;;;;;;;;;27.02;45.83;102130.31;10437984;28;20308;-79
2023/06/07 10:17:00;;;;;;;;;;;;;;;27.17;47.39;102126.75;10437211;28;20364;-79
2023/06/07 10:22:00;;;;;;;;;;;;;;;27.36;44.06;102125.03;10436595;28;19947;-79
2023/06/07 10:27:08;;;;;;;;;;;;;;;26.80;45.03;102119.47;10455717;28;19956;-79
2023/06/07 10:32:13;;;;;;;;;;;;;;;26.97;45.25;102111.72;10421081;28;19924;-79
2023/06/07 10:37:13;;;;;;;;;;;;;;;27.67;45.00;102116.63;10454390;28;19917;-79
2023/06/07 10:42:13;;;;;;;;;;;;;;;27.53;46.00;102122.75;10436810;28;19921;-79
2023/06/07 10:47:31;;;;;;;;;;;;;;;26.85;41.08;102113.94;10459441;28;20292;-79
2023/06/07 10:52:32;;;;;;;;;;;;;;;26.73;44.83;102099.47;10463395;28;19972;-79
2023/06/07 10:57:32;;;;;;;;;;;;;;;26.78;44.51;102093.94;10462006;28;20383;-79
2023/06/07 11:02:33;;;;;;;;;;;;;;;27.11;45.24;102095.28;10443346;28;19917;-79
2023/06/07 11:07:37;;;;;;;;;;;;;;;27.81;45.90;102081.50;10426825;28;19943;-79
2023/06/07 11:12:46;;;;;;;;;;;;;;;28.45;45.08;102083.38;10444245;28;19920;-79
2023/06/07 11:17:54;;;;;;;;;;;;;;;28.55;42.94;102081.66;10442266;28;20036;-70
2023/06/07 11:23:14;;;;;;;;;;;;;;;28.19;43.53;102081.88;10440139;28;20410;-71
2023/06/07 11:28:15;;;;;;;;;;;;;;;28.28;42.95;102077.38;10458781;28;19940;-70
2023/06/07 11:33:15;;;;;;;;;;;;;;;28.15;43.16;102072.44;10440601;28;20078;-71
2023/06/07 11:38:16;;;;;;;;;;;;;;;28.13;41.82;102069.09;10458096;28;20031;-70
2023/06/07 11:43:20;;;;;;;;;;;;;;;27.85;40.46;102070.63;10457738;28;19925;-71
2023/06/07 11:48:20;;;;;;;;;;;;;;;27.65;42.37;102069.59;10423420;28;19923;-70
2023/06/07 11:53:21;;;;;;;;;;;;;;;28.96;41.40;102066.22;10458621;28;19936;-70
2023/06/07 11:58:22;;;;;;;;;;;;;;;28.98;42.76;102063.16;10455806;28;19927;-71
2023/06/07 12:03:22;;;;;;;;;;;;;;;29.20;41.79;102057.94;10440246;28;20253;-71
2023/06/07 12:08:23;;;;;;;;;;;;;;;28.97;40.45;102047.53;10439172;28;20401;-71
2023/06/07 12:13:24;;;;;;;;;;;;;;;29.20;41.28;102045.97;10422863;28;19917;-71
2023/06/07 12:18:25;;;;;;;;;;;;;;;29.23;40.26;102041.72;10438400;28;19927;-71
2023/06/07 12:23:25;;;;;;;;;;;;;;;29.40;43.79;102042.09;10439213;28;19916;-71
2023/06/07 12:28:26;;;;;;;;;;;;;;;29.30;40.18;102043.03;10455911;28;19986;-70
2023/06/07 12:33:27;;;;;;;;;;;;;;;28.95;40.64;102038.66;10455918;28;19921;-71
2023/06/07 12:38:27;;;;;;;;;;;;;;;28.91;42.76;102032.84;10455420;28;20336;-71
2023/06/07 12:43:27;;;;;;;;;;;;;;;28.78;41.24;102036.31;10455471;28;20002;-71
2023/06/07 12:48:27;;;;;;;;;;;;;;;29.39;43.54;102037.66;10455392;28;20387;-71
2023/06/07 12:53:28;;;;;;;;;;;;;;;30.03;43.76;102024.25;10456513;28;19932;-71
2023/06/07 12:58:28;;;;;;;;;;;;;;;29.58;40.11;102018.13;10457220;28;19939;-71
2023/06/07 13:03:28;;;;;;;;;;;;;;;29.62;43.94;102019.25;10456068;28;20039;-70
2023/06/07 13:08:28;;;;;;;;;;;;;;;30.34;43.91;102007.84;10454522;28;19963;-71
2023/06/07 13:13:29;;;;;;;;;;;;;;;29.82;43.89;102001.38;10438225;28;19965;-71
2023/06/07 13:18:30;;;;;;;;;;;;;;;29.92;43.43;101998.44;10456276;28;20268;-71
2023/06/07 13:23:31;;;;;;;;;;;;;;;29.68;42.07;101998.50;10455005;28;19975;-71
2023/06/07 13:28:31;;;;;;;;;;;;;;;29.50;41.29;101991.72;10437418;28;19921;-71
2023/06/07 13:33:32;;;;;;;;;;;;;;;29.53;43.06;101993.09;10455121;28;19917;-71
2023/06/07 13:38:32;;;;;;;;;;;;;;;29.82;44.53;101985.44;10453617;28;19925;-71
2023/06/07 13:43:34;;;;;;;;;;;;;;;29.82;44.13;101974.28;10453071;28;20439;-71
2023/06/07 13:48:39;;;;;;;;;;;;;;;29.68;46.22;101984.53;10436244;28;19959;-71
2023/06/07 13:53:40;;;;;;;;;;;;;;;29.54;46.50;101975.22;10453524;28;20328;-71
2023/06/07 13:58:40;;;;;;;;;;;;;;;29.83;46.71;101975.09;10435536;28;20007;-71
2023/06/07 14:03:41;;;;;;;;;;;;;;;29.79;47.21;101969.28;10453779;28;19927;-71
2023/06/07 14:08:41;;;;;;;;;;;;;;;29.16;44.94;101962.03;10453298;28;19923;-71
2023/06/07 14:13:43;;;;;;;;;;;;;;;28.84;45.72;101967.38;10453327;28;20011;-71
2023/06/07 14:18:43;;;;;;;;;;;;;;;28.66;45.04;101963.41;10435245;28;19975;-72
2023/06/07 14:23:43;;;;;;;;;;;;;;;28.82;46.74;101956.53;10460797;28;19917;-71
2023/06/07 14:28:43;;;;;;;;;;;;;;;28.43;44.43;101960.28;10442248;28;19981;-71
2023/06/07 14:33:44;;;;;;;;;;;;;;;28.46;46.93;101959.69;10442645;28;19921;-71
2023/06/07 14:38:44;;;;;;;;;;;;;;;28.33;47.27;101948.34;10461111;28;19978;-71
2023/06/07 14:43:44;;;;;;;;;;;;;;;28.15;47.40;101950.72;10442920;28;19924;-71
2023/06/07 14:48:45;;;;;;;;;;;;;;;27.97;48.12;101943.06;10442047;28;19920;-71
2023/06/07 14:53:47;;;;;;;;;;;;;;;27.84;48.03;101952.06;10458931;28;19995;-71
2023/06/07 14:58:47;;;;;;;;;;;;;;;27.36;48.89;101947.03;10459481;28;20016;-71
2023/06/07 15:03:47;;;;;;;;;;;;;;;27.19;48.93;101938.22;10458929;28;20436;-71
2023/06/07 15:08:51;;;;;;;;;;;;;;;27.02;49.05;101941.28;10440855;28;19931;-71
2023/06/07 15:13:51;;;;;;;;;;;;;;;26.80;49.13;101936.06;10458860;28;19921;-71
2023/06/07 15:18:51;;;;;;;;;;;;;;;26.43;49.94;101940.81;10441639;28;20338;-71
2023/06/07 15:23:52;;;;;;;;;;;;;;;26.56;50.03;101944.19;10440950;28;19955;-71
2023/06/07 15:28:52;;;;;;;;;;;;;;;26.38;50.10;101928.88;10458124;28;19927;-71
2023/06/07 15:33:54;;;;;;;;;;;;;;;25.61;50.72;101928.78;10457408;28;19960;-71
2023/06/07 15:38:54;;;;;;;;;;;;;;;25.54;50.49;101941.28;10457731;28;20062;-71
2023/06/07 15:43:55;;;;;;;;;;;;;;;25.36;50.72;101932.31;10458361;28;20027;-71
2023/06/07 15:48:55;;;;;;;;;;;;;;;25.29;50.54;101932.56;10422952;28;20015;-71
2023/06/07 15:53:56;;;;;;;;;;;;;;;25.36;50.78;101929.56;10439143;28;19968;-72
2023/06/07 15:58:56;;;;;;;;;;;;;;;25.16;51.03;101921.16;10456544;28;19931;-71
2023/06/07 16:03:56;;;;;;;;;;;;;;;25.00;51.22;101918.28;10456905;28;20011;-70
2023/06/07 16:08:57;;;;;;;;;;;;;;;24.98;51.35;101914.97;10457690;28;20013;-70
2023/06/07 16:13:57;;;;;;;;;;;;;;;24.70;51.50;101915.38;10440722;28;19939;-70
2023/06/07 16:18:57;;;;;;;;;;;;;;;24.61;51.79;101909.50;10457200;28;19921;-71
2023/06/07 16:23:57;;;;;;;;;;;;;;;24.17;51.77;101908.88;10456876;28;20008;-70
2023/06/07 16:28:58;;;;;;;;;;;;;;;23.68;51.41;101909.78;10456651;28;20421;-71
2023/06/07 16:33:58;;;;;;;;;;;;;;;23.32;51.59;101895.53;10437819;28;19920;-71
2023/06/07 16:38:59;;;;;;;;;;;;;;;23.05;51.63;101898.28;10438980;28;19968;-70
2023/06/07 16:43:59;;;;;;;;;;;;;;;22.82;52.11;101891.03;10454843;28;20008;-70
2023/06/07 16:49:00;;;;;;;;;;;;;;;22.59;52.27;101897.63;10436842;28;19928;-70
2023/06/07 16:54:00;;;;;;;;;;;;;;;22.51;51.74;101895.28;10455262;28;20032;-70
2023/06/07 16:59:00;;;;;;;;;;;;;;;22.33;52.69;101901.91;10437343;28;19959;-70
2023/06/07 17:04:00;;;;;;;;;;;;;;;22.16;53.18;101907.44;10454904;28;20300;-70
2023/06/07 17:09:00;;;;;;;;;;;;;;;21.95;53.35;101903.47;10436772;28;20261;-70
2023/06/07 17:14:01;;;;;;;;;;;;;;;21.82;54.22;101909.28;10436993;28;20300;-71
2023/06/07 17:19:03;;;;;;;;;;;;;;;21.81;53.48;101910.38;10436675;28;19939;-70
2023/06/07 17:24:03;;;;;;;;;;;;;;;21.68;53.50;101910.69;10453331;28;20043;-70
2023/06/07 17:29:03;;;;;;;;;;;;;;;21.46;54.71;101914.13;10454412;28;19964;-70
2023/06/07 17:34:10;;;;;;;;;;;;;;;21.28;57.12;101904.13;10454793;28;19933;-71
2023/06/07 17:39:11;;;;;;;;;;;;;;;21.17;56.44;101899.47;10452553;28;20007;-70
2023/06/07 17:44:11;;;;;;;;;;;;;;;21.04;56.95;101902.50;10453291;28;20407;-70
2023/06/07 17:49:12;;;;;;;;;;;;;;;20.91;56.28;101909.13;10453675;28;19939;-70
2023/06/07 17:54:12;;;;;;;;;;;;;;;20.64;60.72;101909.63;10454377;28;20012;-71
2023/06/07 17:59:12;;;;;;;;;;;;;;;20.55;60.44;101910.22;10435305;28;19920;-70
2023/06/07 18:04:14;;;;;;;;;;;;;;;20.52;59.21;101902.47;10453172;28;20347;-70
2023/06/07 18:09:14;;;;;;;;;;;;;;;20.38;60.05;101910.91;10434824;28;20043;-70
2023/06/07 18:14:15;;;;;;;;;;;;;;;20.26;62.35;101903.72;10452124;28;20020;-70
2023/06/07 18:19:15;;;;;;;;;;;;;;;20.17;64.14;101909.56;10435009;28;20445;-70
2023/06/07 18:24:15;;;;;;;;;;;;;;;20.11;62.02;101898.69;10453137;28;20341;-70
2023/06/07 18:29:16;;;;;;;;;;;;;;;19.95;62.19;101891.97;10434511;28;20007;-70
2023/06/07 18:34:16;;;;;;;;;;;;;;;19.81;69.77;101907.81;10419843;28;19920;-70
2023/06/07 18:39:19;;;;;;;;;;;;;;;19.73;64.16;101910.91;10452328;28;19996;-72
2023/06/07 18:44:20;;;;;;;;;;;;;;;19.48;69.48;101913.75;10433502;28;19917;-73
2023/06/07 18:49:20;;;;;;;;;;;;;;;19.38;68.09;101916.22;10417597;28;20328;-71
2023/06/07 18:54:20;;;;;;;;;;;;;;;19.28;66.16;101914.88;10371611;28;20357;-72
2023/06/07 18:59:20;;;;;;;;;;;;;;;19.19;66.60;101920.91;10368738;28;19932;-71
2023/06/07 19:04:21;;;;;;;;;;;;;;;18.98;70.32;101927.69;10369849;28;20051;-71
2023/06/07 19:09:22;;;;;;;;;;;;;;;18.75;72.54;101918.22;10376453;28;19917;-73
2023/06/07 19:14:22;;;;;;;;;;;;;;;18.57;71.75;101923.66;10363705;28;19921;-77
2023/06/07 19:19:22;;;;;;;;;;;;;;;18.49;70.43;101923.94;10363413;28;19918;-78
2023/06/07 19:24:23;;;;;;;;;;;;;;;18.28;71.00;101923.28;10385857;28;19921;-76
2023/06/07 19:29:23;;;;;;;;;;;;;;;18.12;74.88;101921.94;10389372;28;20019;-75
2023/06/07 19:34:23;;;;;;;;;;;;;;;18.01;74.31;101930.03;10388008;28;19937;-76
2023/06/07 19:39:24;;;;;;;;;;;;;;;17.87;74.97;101924.66;10384301;28;19925;-75
2023/06/07 19:44:24;;;;;;;;;;;;;;;17.62;80.26;101923.72;10379031;28;19928;-74
2023/06/07 19:49:25;;;;;;;;;;;;;;;17.43;82.78;101929.06;10360915;28;20306;-74
2023/06/07 19:54:25;;;;;;;;;;;;;;;17.27;81.99;101931.47;10376448;28;20028;-73
2023/06/07 19:59:26;;;;;;;;;;;;;;;17.15;78.49;101936.78;10376328;28;20008;-73
2023/06/07 20:04:26;;;;;;;;;;;;;;;16.98;79.19;101946.53;10374933;28;20012;-69
2023/06/07 20:09:28;;;;;;;;;;;;;;;16.78;83.17;101952.03;10374480;28;19918;-70
2023/06/07 20:14:28;;;;;;;;;;;;;;;16.62;82.63;101951.38;10376891;28;19921;-70
2023/06/07 20:19:29;;;;;;;;;;;;;;;16.43;84.99;101958.56;10373257;28;19921;-70
2023/06/07 20:24:29;;;;;;;;;;;;;;;16.32;78.44;101964.66;10374854;28;19925;-71
2023/06/07 20:29:30;;;;;;;;;;;;;;;16.19;81.74;101970.09;10359691;28;19918;-72
2023/06/07 20:34:30;;;;;;;;;;;;;;;16.02;82.06;101967.78;10374751;28;19926;-71
2023/06/07 20:39:30;;;;;;;;;;;;;;;15.87;83.44;101969.84;10375127;28;19921;-71
2023/06/07 20:44:31;;;;;;;;;;;;;;;15.74;85.38;101981.56;10376338;28;19953;-71
2023/06/07 20:49:31;;;;;;;;;;;;;;;15.63;87.19;101984.84;10374373;28;19922;-71
2023/06/07 20:54:31;;;;;;;;;;;;;;;15.50;89.16;101982.91;10454347;28;19931;-71
2023/06/07 20:59:32;;;;;;;;;;;;;;;15.40;85.74;101976.16;10440210;28;19925;-71
2023/06/07 21:04:33;;;;;;;;;;;;;;;15.24;87.75;101978.19;10438648;28;19961;-71
2023/06/07 21:09:33;;;;;;;;;;;;;;;15.12;90.54;101979.78;10423388;28;20353;-71
2023/06/07 21:14:33;;;;;;;;;;;;;;;15.01;90.59;101978.47;10422614;28;20019;-71
2023/06/07 21:19:33;;;;;;;;;;;;;;;14.93;92.15;101985.97;10438324;28;19928;-71
2023/06/07 21:24:34;;;;;;;;;;;;;;;14.86;91.42;101980.47;10437477;28;19925;-71
2023/06/07 21:29:34;;;;;;;;;;;;;;;14.75;93.29;101986.50;10454177;28;20010;-71
2023/06/07 21:34:34;;;;;;;;;;;;;;;14.65;93.40;101982.22;10437044;28;20279;-71
2023/06/07 21:39:34;;;;;;;;;;;;;;;14.59;92.27;101996.63;10437130;28;19917;-71
2023/06/07 21:44:35;;;;;;;;;;;;;;;14.52;93.06;101990.31;10455717;28;19921;-70
2023/06/07 21:49:35;;;;;;;;;;;;;;;14.44;93.65;101987.66;10454496;28;20304;-70
2023/06/07 21:54:44;;;;;;;;;;;;;;;14.34;95.21;101982.56;10456209;28;20027;-70
2023/06/07 21:59:45;;;;;;;;;;;;;;;14.27;99.75;101991.72;10454112;28;19917;-70
2023/06/07 22:04:45;;;;;;;;;;;;;;;14.18;100.00;101993.72;10436477;28;20360;-70
2023/06/07 22:09:47;;;;;;;;;;;;;;;14.16;95.29;101982.16;10453946;28;19928;-70
2023/06/07 22:14:48;;;;;;;;;;;;;;;14.08;94.95;101983.16;10454850;28;20004;-70
2023/06/07 22:19:48;;;;;;;;;;;;;;;13.99;98.22;101983.47;10419899;28;19971;-70
2023/06/07 22:24:49;;;;;;;;;;;;;;;13.91;99.83;101981.69;10455292;28;20360;-70
2023/06/07 22:29:53;;;;;;;;;;;;;;;13.83;99.62;101992.72;10455559;28;19952;-70
2023/06/07 22:34:55;;;;;;;;;;;;;;;13.73;98.99;101980.25;10453776;28;20075;-70
2023/06/07 22:39:55;;;;;;;;;;;;;;;13.66;98.90;101987.53;10454029;28;19916;-70
2023/06/07 22:44:56;;;;;;;;;;;;;;;13.57;99.92;101988.66;10461345;28;20291;-70
2023/06/07 22:50:02;;;;;;;;;;;;;;;13.53;98.54;101981.91;10461512;28;19991;-70
2023/06/07 22:55:03;;;;;;;;;;;;;;;13.43;100.00;101974.06;10462359;28;19917;-70
2023/06/07 23:00:03;;;;;;;;;;;;;;;13.40;100.00;101973.56;10462338;28;20280;-70
2023/06/07 23:05:03;;;;;;;;;;;;;;;13.30;100.00;101981.19;10463461;28;19920;-70
2023/06/07 23:10:04;;;;;;;;;;;;;;;13.26;100.00;101975.28;10461739;28;19917;-70
2023/06/07 23:15:05;;;;;;;;;;;;;;;13.17;100.00;101969.06;10461719;28;19921;-70
2023/06/07 23:20:09;;;;;;;;;;;;;;;13.10;100.00;101968.13;10462357;28;19935;-71
2023/06/07 23:25:13;;;;;;;;;;;;;;;13.05;100.00;101981.47;10442457;28;19931;-70
2023/06/07 23:30:13;;;;;;;;;;;;;;;12.95;100.00;101970.00;10460140;28;20023;-70
2023/06/07 23:35:13;;;;;;;;;;;;;;;12.90;100.00;101973.28;10461506;28;20437;-71
2023/06/07 23:40:15;;;;;;;;;;;;;;;12.87;100.00;101975.53;10441756;28;19927;-70
2023/06/07 23:45:15;;;;;;;;;;;;;;;12.82;100.00;101969.81;10444230;28;19916;-70
2023/06/07 23:50:15;;;;;;;;;;;;;;;12.80;100.00;101964.56;10460166;28;19925;-70
2023/06/07 23:55:16;;;;;;;;;;;;;;;12.76;100.00;101958.66;10458254;28;20003;-70
